Terminal Aerodrome Forecast
Issued by NWS

Home | Current Version | Previous Version | Text Only | Print | Product List | Glossary On
Versions: 1 2 3 4 5 6 7 8 9 10 11 12 13 14 15 16 17 18
184
FTUS43 KILX 121139
TAFDEC
TAF
KDEC 121139Z 1212/1312 28007KT 4SM -SN BR OVC035
     FM121400 29010KT P6SM OVC025
     FM121600 30012G17KT P6SM OVC018
     FM122200 31017G27KT P6SM SCT025=

USA.gov is the U.S. government's official web portal to all federal, state and local government web resources and services.